Alpena, South Dakota
Current Conditions -  °F | °C
As of 10:55 AM on Friday 24 Oct 2014 (Local Time) from KHON Reporting Station
Clear Clear  
Wind Chill: 54°   Ceiling: Unl
Heat Index: 54°   Visibility: 10mi
Dew Point: 42°   Wind: 3mph
Humidity: 64%   Direction: 270°W
Pressure: 29.91"   Gusts: NA
Location:  44.18°N, 98.37°W
Report Text: KHON 241555Z AUTO 27003KT 10SM CLR 12/06 A2991 RMK AO2 SLP129 T01220056
Loading
Personal Weather Stations






























Interactive Weather Map
Tropical Storm Tracking
New forecast layout! Learn more

10-Day Weather Forecast

Advertisements
Track Severe Weather on mobile